Time;durP1;ratioP1;P1;durP2;ratioP2;P2;SDS_P1;SDS_P2;PMS_P1;PMS_P2;Temp;Humidity;BMP_temperature;BMP_pressure;BME280_temperature;BME280_humidity;BME280_pressure;Samples;Min_cycle;Max_cycle;Signal;HPM_P1;HPM_P2
2021/01/16 00:00:31;;;;;;;18.13;10.85;;;-0.80;99.90;;;;;;5003473;28;20098;-80
2021/01/16 00:02:57;;;;;;;21.10;11.30;;;-0.90;99.90;;;;;;5001316;28;20083;-80
2021/01/16 00:05:24;;;;;;;21.60;13.00;;;-0.90;99.90;;;;;;5011578;28;20083;-79
2021/01/16 00:08:20;;;;;;;21.15;12.85;;;-1.10;99.90;;;;;;5005112;28;20090;-80
2021/01/16 00:10:51;;;;;;;18.13;12.10;;;-1.00;99.90;;;;;;5005489;28;20193;-80
2021/01/16 00:13:23;;;;;;;18.83;10.57;;;-1.10;99.90;;;;;;5009313;28;20083;-80
2021/01/16 00:15:50;;;;;;;21.02;12.07;;;-0.90;99.90;;;;;;5005892;28;20349;-80
2021/01/16 00:18:18;;;;;;;21.07;11.60;;;-1.00;99.90;;;;;;5007107;28;20631;-80
2021/01/16 00:20:47;;;;;;;23.00;12.23;;;-0.90;99.90;;;;;;5012631;28;20192;-79
2021/01/16 00:23:13;;;;;;;22.50;11.70;;;-0.70;99.90;;;;;;5007208;28;20079;-80
2021/01/16 00:25:39;;;;;;;20.30;12.10;;;-0.70;99.90;;;;;;5012999;28;20101;-80
2021/01/16 00:28:05;;;;;;;21.00;11.65;;;-0.70;99.90;;;;;;5008299;28;20078;-80
2021/01/16 00:30:34;;;;;;;19.08;12.23;;;-0.90;99.90;;;;;;4999733;28;20126;-80
2021/01/16 00:33:00;;;;;;;19.77;11.73;;;-0.80;99.90;;;;;;4999918;28;20433;-80
2021/01/16 00:35:28;;;;;;;21.83;12.55;;;-0.80;99.90;;;;;;5006936;28;20190;-79
2021/01/16 00:37:54;;;;;;;18.40;11.65;;;-0.80;99.90;;;;;;5001729;28;20075;-79
2021/01/16 00:40:22;;;;;;;18.27;11.43;;;-1.10;99.90;;;;;;4999146;28;20579;-80
2021/01/16 00:42:50;;;;;;;17.70;11.33;;;-0.90;99.90;;;;;;5005292;28;20085;-80
2021/01/16 00:45:17;;;;;;;15.75;10.27;;;-1.00;99.90;;;;;;5005921;28;20145;-80
2021/01/16 00:47:44;;;;;;;16.95;10.40;;;-1.00;99.90;;;;;;4995569;28;20249;-80
2021/01/16 00:50:12;;;;;;;19.40;11.32;;;-1.00;99.90;;;;;;4993749;28;20561;-80
2021/01/16 00:52:38;;;;;;;20.13;11.27;;;-1.10;99.90;;;;;;4993213;28;20461;-80
2021/01/16 00:55:05;;;;;;;19.90;11.80;;;-1.10;99.90;;;;;;5001195;28;20098;-80
2021/01/16 00:57:30;;;;;;;18.63;11.82;;;-1.10;99.90;;;;;;4996414;28;20079;-80
2021/01/16 00:59:56;;;;;;;18.65;10.68;;;-1.10;99.90;;;;;;4991950;28;20241;-80
2021/01/16 01:02:23;;;;;;;17.77;10.95;;;-1.20;99.90;;;;;;5010477;28;20078;-80
2021/01/16 01:04:49;;;;;;;19.10;11.87;;;-1.20;99.90;;;;;;5003084;28;20083;-80
2021/01/16 01:07:15;;;;;;;17.43;10.20;;;-1.10;99.90;;;;;;5002997;28;20089;-80
2021/01/16 01:09:41;;;;;;;17.25;11.07;;;-1.00;99.90;;;;;;5010641;28;20098;-80
2021/01/16 01:12:08;;;;;;;17.48;9.88;;;-1.10;99.90;;;;;;5011011;28;20090;-80
2021/01/16 01:14:35;;;;;;;16.80;11.07;;;-1.00;99.90;;;;;;5005046;28;20101;-80
2021/01/16 01:17:00;;;;;;;17.83;9.75;;;-1.10;99.90;;;;;;5004618;28;20203;-80
2021/01/16 01:19:26;;;;;;;16.60;10.82;;;-1.10;99.90;;;;;;5014231;28;20083;-80
2021/01/16 01:21:52;;;;;;;17.27;9.80;;;-1.00;99.90;;;;;;5000144;28;20121;-80
2021/01/16 01:24:18;;;;;;;14.70;9.60;;;-1.00;99.90;;;;;;5011492;28;20074;-80
2021/01/16 01:26:43;;;;;;;16.13;10.23;;;-1.00;99.90;;;;;;5010604;28;20092;-80
2021/01/16 01:29:09;;;;;;;16.40;10.30;;;-0.90;99.90;;;;;;5014068;28;20078;-80
2021/01/16 01:31:37;;;;;;;16.38;9.48;;;-1.00;99.90;;;;;;5013957;28;20109;-80
2021/01/16 01:34:06;;;;;;;17.63;11.30;;;-1.00;99.90;;;;;;5016211;28;20097;-80
2021/01/16 01:36:31;;;;;;;16.85;10.85;;;-1.10;99.90;;;;;;5017081;28;20109;-80
2021/01/16 01:38:57;;;;;;;18.80;9.87;;;-1.00;99.90;;;;;;5017132;28;20097;-80
2021/01/16 01:41:23;;;;;;;16.75;9.73;;;-1.00;99.90;;;;;;5015701;28;20094;-80
2021/01/16 01:43:49;;;;;;;17.13;10.53;;;-1.00;99.90;;;;;;5014962;28;20477;-80
2021/01/16 01:46:15;;;;;;;22.75;11.27;;;-1.00;99.90;;;;;;5011767;28;20082;-80
2021/01/16 01:48:41;;;;;;;17.65;9.85;;;-1.00;99.90;;;;;;5010482;28;20089;-79
2021/01/16 01:51:08;;;;;;;15.50;9.18;;;-1.00;99.90;;;;;;5010465;28;20102;-80
2021/01/16 01:53:35;;;;;;;16.70;9.80;;;-1.00;99.90;;;;;;5013953;28;20117;-80
2021/01/16 01:56:02;;;;;;;17.75;10.32;;;-1.10;99.90;;;;;;5011347;28;20078;-80
2021/01/16 01:58:29;;;;;;;15.57;10.45;;;-1.20;99.90;;;;;;5001100;28;20083;-80
2021/01/16 02:00:55;;;;;;;16.90;9.77;;;-1.30;99.90;;;;;;5008320;28;20100;-80
2021/01/16 02:03:23;;;;;;;14.93;9.43;;;-1.20;99.90;;;;;;5013198;28;20098;-80
2021/01/16 02:05:56;;;;;;;18.83;9.60;;;-1.20;99.90;;;;;;5000536;28;20163;-80
2021/01/16 02:08:22;;;;;;;16.50;10.70;;;-1.10;99.90;;;;;;5014191;28;20121;-80
2021/01/16 02:10:48;;;;;;;15.50;10.97;;;-1.10;99.90;;;;;;5013967;28;20569;-80
2021/01/16 02:13:14;;;;;;;19.07;10.43;;;-1.20;99.90;;;;;;5014491;28;20081;-80
2021/01/16 02:16:04;;;;;;;17.63;11.10;;;-1.20;99.90;;;;;;5015017;28;20109;-79
2021/01/16 02:18:38;;;;;;;17.03;10.00;;;-1.10;99.90;;;;;;5010044;28;20075;-79
2021/01/16 02:21:07;;;;;;;15.98;10.38;;;-1.00;99.90;;;;;;5011984;28;20554;-80
2021/01/16 02:23:47;;;;;;;18.40;10.67;;;-1.10;99.90;;;;;;4995882;28;20149;-79
2021/01/16 02:26:16;;;;;;;15.57;10.30;;;-1.00;99.90;;;;;;5007474;28;20573;-80
2021/01/16 02:29:05;;;;;;;17.87;10.60;;;-1.10;99.90;;;;;;5008075;28;20078;-80
2021/01/16 02:31:37;;;;;;;15.30;9.47;;;-1.10;99.90;;;;;;5007072;28;20106;-80
2021/01/16 02:34:04;;;;;;;13.70;8.83;;;-1.00;99.90;;;;;;5011611;28;20101;-79
2021/01/16 02:36:35;;;;;;;14.57;9.20;;;-1.10;99.90;;;;;;5000512;28;20082;-80
2021/01/16 02:39:13;;;;;;;15.77;8.93;;;-0.90;99.90;;;;;;5001479;28;20576;-80
2021/01/16 02:42:05;;;;;;;15.52;9.52;;;-1.00;99.90;;;;;;5026383;28;20089;-80
2021/01/16 02:44:36;;;;;;;15.82;9.43;;;-0.90;99.90;;;;;;5002984;28;20082;-80
2021/01/16 02:47:32;;;;;;;15.77;9.48;;;-0.90;99.90;;;;;;5010933;28;20596;-79
2021/01/16 02:50:07;;;;;;;16.38;9.32;;;-1.00;99.90;;;;;;5011813;28;20588;-79
2021/01/16 02:52:44;;;;;;;19.10;10.67;;;-1.00;99.90;;;;;;4995480;28;20083;-79
2021/01/16 02:55:10;;;;;;;16.77;9.73;;;-0.90;99.90;;;;;;5010455;28;20097;-80
2021/01/16 02:57:36;;;;;;;16.08;9.30;;;-1.00;99.90;;;;;;5012107;28;20075;-79
2021/01/16 03:00:06;;;;;;;17.20;9.73;;;-1.00;99.90;;;;;;5016062;28;20611;-80
2021/01/16 03:02:32;;;;;;;14.13;9.03;;;-1.00;99.90;;;;;;5012858;28;20417;-80
2021/01/16 03:04:58;;;;;;;20.30;10.40;;;-1.00;99.90;;;;;;5013134;28;20093;-80
2021/01/16 03:07:25;;;;;;;17.10;10.87;;;-0.90;99.90;;;;;;5015588;28;20078;-79
2021/01/16 03:09:53;;;;;;;18.47;11.20;;;-0.90;99.90;;;;;;5012319;28;20137;-80
2021/01/16 03:12:19;;;;;;;16.57;9.83;;;-0.90;99.90;;;;;;5001855;28;20150;-80
2021/01/16 03:14:51;;;;;;;16.33;10.33;;;-1.00;99.90;;;;;;5000142;28;20189;-80
2021/01/16 03:17:17;;;;;;;14.43;8.47;;;-1.10;99.90;;;;;;5001751;28;20114;-80
2021/01/16 03:19:48;;;;;;;17.77;10.68;;;-0.90;99.90;;;;;;5005233;28;20094;-80
2021/01/16 03:22:28;;;;;;;15.77;10.17;;;-0.90;99.90;;;;;;5010228;28;20526;-80
2021/01/16 03:24:56;;;;;;;16.27;10.33;;;-1.00;99.90;;;;;;5003100;28;20082;-80
2021/01/16 03:27:23;;;;;;;15.67;10.00;;;-0.90;99.90;;;;;;5002371;28;20079;-80
2021/01/16 03:29:50;;;;;;;18.35;10.65;;;-0.90;99.90;;;;;;5012982;28;20106;-80
2021/01/16 03:32:16;;;;;;;17.83;10.00;;;-0.90;99.90;;;;;;5008957;28;20090;-80
2021/01/16 03:34:43;;;;;;;17.10;9.17;;;-1.00;99.90;;;;;;5007163;28;20450;-80
2021/01/16 03:37:10;;;;;;;18.50;10.83;;;-1.00;99.90;;;;;;5012815;28;20074;-79
2021/01/16 03:39:36;;;;;;;18.65;10.40;;;-0.90;99.90;;;;;;5003463;28;20074;-80
2021/01/16 03:42:02;;;;;;;18.35;10.43;;;-1.00;99.90;;;;;;5009131;28;20098;-80
2021/01/16 03:44:27;;;;;;;17.95;10.30;;;-1.10;99.90;;;;;;5009041;28;20083;-80
2021/01/16 03:46:53;;;;;;;17.90;9.90;;;-1.00;99.90;;;;;;4998847;28;20143;-79
2021/01/16 03:49:19;;;;;;;18.97;10.97;;;-1.00;99.90;;;;;;5010866;28;20078;-80
2021/01/16 03:51:45;;;;;;;19.70;10.27;;;-1.00;99.90;;;;;;5007882;28;20118;-80
2021/01/16 03:54:11;;;;;;;21.63;10.63;;;-1.00;99.90;;;;;;5012085;28;20099;-80
2021/01/16 03:56:37;;;;;;;18.10;9.87;;;-1.00;99.90;;;;;;5005755;28;20648;-80
2021/01/16 03:59:03;;;;;;;16.50;10.50;;;-1.10;99.90;;;;;;4998056;28;20090;-80
2021/01/16 04:01:33;;;;;;;17.53;10.07;;;-1.30;99.90;;;;;;5006982;28;20090;-80
2021/01/16 04:04:00;;;;;;;19.20;11.07;;;-1.20;99.90;;;;;;5010445;28;20108;-80
2021/01/16 04:06:25;;;;;;;19.27;10.13;;;-1.20;99.90;;;;;;5011134;28;20576;-80
2021/01/16 04:08:51;;;;;;;18.33;10.27;;;-1.20;99.90;;;;;;5006741;28;20178;-80
2021/01/16 04:11:17;;;;;;;17.23;10.90;;;-1.20;99.90;;;;;;5007340;28;20580;-80
2021/01/16 04:13:42;;;;;;;17.40;9.47;;;-1.10;99.90;;;;;;5008230;28;20169;-80
2021/01/16 04:16:08;;;;;;;18.30;10.13;;;-1.00;99.90;;;;;;5009149;28;20133;-80
2021/01/16 04:18:34;;;;;;;17.73;10.53;;;-0.90;99.90;;;;;;5004193;28;20518;-80
2021/01/16 04:21:01;;;;;;;18.60;10.93;;;-1.00;99.90;;;;;;5008958;28;20091;-80
2021/01/16 04:23:27;;;;;;;16.10;10.20;;;-0.90;99.90;;;;;;5008170;28;20501;-80
2021/01/16 04:25:52;;;;;;;18.88;10.52;;;-0.90;99.90;;;;;;5003628;28;20318;-80
2021/01/16 04:28:18;;;;;;;18.37;10.73;;;-1.00;99.90;;;;;;5009251;28;20078;-80
2021/01/16 04:30:44;;;;;;;17.30;10.43;;;-0.80;99.90;;;;;;5009573;28;20106;-80
2021/01/16 04:33:10;;;;;;;16.70;10.53;;;-1.00;99.90;;;;;;5007287;28;20079;-80
2021/01/16 04:35:36;;;;;;;19.60;12.33;;;-1.00;99.90;;;;;;5001320;28;20098;-80
2021/01/16 04:38:02;;;;;;;18.97;10.83;;;-1.00;99.90;;;;;;5002477;28;20106;-79
2021/01/16 04:40:29;;;;;;;17.85;10.10;;;-1.00;99.90;;;;;;4996605;28;20086;-80
2021/01/16 04:42:55;;;;;;;16.02;9.70;;;-1.10;99.90;;;;;;5008225;28;20074;-80
2021/01/16 04:45:22;;;;;;;16.73;9.87;;;-1.10;99.90;;;;;;5007420;28;20548;-80
2021/01/16 04:47:49;;;;;;;17.00;9.83;;;-1.10;99.90;;;;;;4999412;28;20563;-80
2021/01/16 04:50:19;;;;;;;20.33;11.83;;;-1.10;99.90;;;;;;5004599;28;20091;-80
2021/01/16 04:52:51;;;;;;;17.65;10.02;;;-1.10;99.90;;;;;;5009002;28;20078;-80
2021/01/16 04:55:18;;;;;;;20.83;11.53;;;-1.20;99.90;;;;;;5008348;28;20092;-80
2021/01/16 04:57:46;;;;;;;19.00;9.80;;;-1.20;99.90;;;;;;5006489;28;20078;-80
2021/01/16 05:00:13;;;;;;;16.88;10.35;;;-1.20;99.90;;;;;;4997213;28;20117;-80
2021/01/16 05:02:41;;;;;;;19.83;11.17;;;-1.20;99.90;;;;;;5012030;28;20149;-79
2021/01/16 05:05:11;;;;;;;20.50;10.10;;;-1.10;99.90;;;;;;5006718;28;20084;-80
2021/01/16 05:07:37;;;;;;;18.23;11.80;;;-1.00;99.90;;;;;;5004429;28;20765;-80
2021/01/16 05:10:08;;;;;;;19.17;11.27;;;-1.00;99.90;;;;;;5000940;28;20174;-80
2021/01/16 05:12:58;;;;;;;19.80;11.83;;;-1.20;99.90;;;;;;4998457;28;20107;-80
2021/01/16 05:15:36;;;;;;;17.53;9.77;;;-1.20;99.90;;;;;;5006484;28;20392;-80
2021/01/16 05:18:13;;;;;;;20.20;10.90;;;-1.30;99.90;;;;;;5005156;28;20084;-80
2021/01/16 05:20:41;;;;;;;21.90;11.03;;;-1.10;99.90;;;;;;5005426;28;20091;-80
2021/01/16 05:23:17;;;;;;;21.20;11.43;;;-1.10;99.90;;;;;;4993596;28;20154;-80
2021/01/16 05:25:53;;;;;;;21.80;12.68;;;-1.10;99.90;;;;;;4997850;28;20074;-80
2021/01/16 05:28:25;;;;;;;18.33;11.30;;;-1.10;99.90;;;;;;5009338;28;20070;-80
2021/01/16 05:30:55;;;;;;;22.60;12.03;;;-1.10;99.90;;;;;;5010162;28;20106;-80
2021/01/16 05:33:25;;;;;;;23.50;11.67;;;-1.20;99.90;;;;;;5009757;28;20090;-80
2021/01/16 05:35:54;;;;;;;22.57;12.43;;;-1.30;99.90;;;;;;5008315;28;20090;-80
2021/01/16 05:38:31;;;;;;;20.63;11.63;;;-1.20;99.90;;;;;;5005358;28;20077;-80
2021/01/16 05:40:58;;;;;;;18.27;11.23;;;-1.20;99.90;;;;;;5000800;28;20087;-80
2021/01/16 05:43:24;;;;;;;20.37;11.43;;;-1.30;99.90;;;;;;5006088;28;20077;-80
2021/01/16 05:45:57;;;;;;;20.27;11.17;;;-1.30;99.90;;;;;;5000646;28;20488;-80
2021/01/16 05:48:25;;;;;;;20.93;10.87;;;-1.10;99.90;;;;;;5004758;28;20082;-80
2021/01/16 05:50:50;;;;;;;20.30;11.30;;;-1.30;99.90;;;;;;4998564;28;20090;-80
2021/01/16 05:53:16;;;;;;;17.63;10.13;;;-1.30;99.90;;;;;;5007934;28;20089;-80
2021/01/16 05:55:43;;;;;;;20.77;11.03;;;-1.40;99.90;;;;;;4990751;28;20111;-80
2021/01/16 05:58:08;;;;;;;22.47;12.40;;;-1.40;99.90;;;;;;5007240;28;20079;-80
2021/01/16 06:00:38;;;;;;;18.40;11.00;;;-1.40;99.90;;;;;;5007534;28;20145;-80
2021/01/16 06:03:10;;;;;;;20.73;10.60;;;-1.30;99.90;;;;;;5009722;28;20070;-80
2021/01/16 06:05:36;;;;;;;18.40;10.77;;;-1.20;99.90;;;;;;5010646;28;20468;-80
2021/01/16 06:08:03;;;;;;;16.90;10.70;;;-1.20;99.90;;;;;;5013795;28;20088;-80
2021/01/16 06:10:34;;;;;;;23.83;12.03;;;-1.20;99.90;;;;;;5012867;28;20094;-80
2021/01/16 06:13:12;;;;;;;18.47;11.03;;;-1.30;99.90;;;;;;5009268;28;20507;-79
2021/01/16 06:15:42;;;;;;;20.93;11.97;;;-1.20;99.90;;;;;;5002124;28;20118;-80
2021/01/16 06:18:20;;;;;;;21.23;11.10;;;-1.10;99.90;;;;;;5012411;28;20414;-80
2021/01/16 06:20:49;;;;;;;21.80;10.87;;;-1.10;99.90;;;;;;5010969;28;20095;-80
2021/01/16 06:23:18;;;;;;;20.37;11.67;;;-1.20;99.90;;;;;;5014396;28;20071;-80
2021/01/16 06:25:49;;;;;;;19.65;11.07;;;-1.20;99.90;;;;;;5010100;28;20110;-80
2021/01/16 06:28:17;;;;;;;20.33;11.00;;;-1.30;99.90;;;;;;5006306;28;20125;-80
2021/01/16 06:30:46;;;;;;;17.80;10.13;;;-1.10;99.90;;;;;;5008279;28;20134;-80
2021/01/16 06:33:25;;;;;;;20.03;11.97;;;-1.10;99.90;;;;;;5011126;28;20086;-80
2021/01/16 06:36:03;;;;;;;23.15;12.45;;;-1.20;99.90;;;;;;5011579;28;20090;-80
2021/01/16 06:38:35;;;;;;;20.40;11.90;;;-1.40;99.90;;;;;;5004500;28;20082;-80
2021/01/16 06:41:15;;;;;;;19.63;11.47;;;-1.40;99.90;;;;;;5012242;28;20091;-80
2021/01/16 06:43:43;;;;;;;20.37;11.00;;;-1.20;99.90;;;;;;5010176;28;20505;-80
2021/01/16 06:46:14;;;;;;;20.00;11.90;;;-1.10;99.90;;;;;;5010462;28;20074;-80
2021/01/16 06:48:44;;;;;;;20.40;11.60;;;-1.20;99.90;;;;;;5011089;28;20078;-80
2021/01/16 06:51:24;;;;;;;17.77;11.43;;;-1.10;99.90;;;;;;5006033;28;20090;-80
2021/01/16 06:53:50;;;;;;;21.10;11.90;;;-1.10;99.90;;;;;;5009520;28;20132;-80
2021/01/16 06:56:26;;;;;;;18.73;10.60;;;-1.10;99.90;;;;;;5011295;28;20173;-80
2021/01/16 06:58:54;;;;;;;19.67;11.68;;;-1.10;99.90;;;;;;5008917;28;20432;-80
2021/01/16 07:01:29;;;;;;;18.37;11.40;;;-1.20;99.90;;;;;;5010099;28;20129;-80
2021/01/16 07:03:58;;;;;;;20.23;11.37;;;-1.20;99.90;;;;;;5012303;28;20085;-80
2021/01/16 07:06:24;;;;;;;22.13;11.50;;;-1.50;99.90;;;;;;5011471;28;20097;-80
2021/01/16 07:08:51;;;;;;;19.90;10.77;;;-1.30;99.90;;;;;;5007591;28;20433;-81
2021/01/16 07:11:16;;;;;;;20.80;12.07;;;-1.30;99.90;;;;;;5001671;28;20193;-80
2021/01/16 07:13:42;;;;;;;23.83;12.27;;;-1.20;99.90;;;;;;4994655;28;20150;-80
2021/01/16 07:16:10;;;;;;;19.90;11.27;;;-1.30;99.90;;;;;;4999787;28;20085;-80
2021/01/16 07:18:37;;;;;;;20.13;12.00;;;-1.30;99.90;;;;;;5001216;28;20642;-80
2021/01/16 07:21:03;;;;;;;21.67;11.70;;;-1.40;99.90;;;;;;5011963;28;20576;-80
2021/01/16 07:23:32;;;;;;;23.13;12.37;;;-1.40;99.90;;;;;;5008135;28;20102;-80
2021/01/16 07:25:59;;;;;;;19.73;10.90;;;-1.50;99.90;;;;;;5011437;28;20128;-81
2021/01/16 07:28:26;;;;;;;21.60;11.53;;;-1.50;99.90;;;;;;5010618;28;20158;-80
2021/01/16 07:30:53;;;;;;;19.70;10.90;;;-1.50;99.90;;;;;;5011322;28;20224;-80
2021/01/16 07:33:19;;;;;;;22.35;11.65;;;-1.60;99.90;;;;;;5008664;28;20090;-80
2021/01/16 07:35:51;;;;;;;21.48;10.52;;;-1.70;99.90;;;;;;4993718;28;20090;-80
2021/01/16 07:38:17;;;;;;;18.50;10.70;;;-1.70;99.90;;;;;;5001492;28;20074;-80
2021/01/16 07:40:45;;;;;;;19.53;10.57;;;-1.70;99.90;;;;;;5013640;28;20086;-80
2021/01/16 07:43:49;;;;;;;18.23;11.00;;;-1.50;99.90;;;;;;5009381;28;20066;-80
2021/01/16 07:46:19;;;;;;;21.90;10.97;;;-1.50;99.90;;;;;;4997172;28;20082;-80
2021/01/16 07:48:55;;;;;;;20.30;10.57;;;-1.50;99.90;;;;;;5006937;28;20085;-80
2021/01/16 07:51:25;;;;;;;20.67;11.57;;;-1.40;99.90;;;;;;5001931;28;20148;-80
2021/01/16 07:53:55;;;;;;;21.50;12.30;;;-1.40;99.90;;;;;;5012903;28;20448;-80
2021/01/16 07:56:33;;;;;;;21.07;11.00;;;-1.40;99.90;;;;;;4994351;28;20075;-80
2021/01/16 07:59:15;;;;;;;21.17;11.83;;;-1.30;99.90;;;;;;5006611;28;20476;-80
2021/01/16 08:02:03;;;;;;;21.80;11.40;;;-1.30;99.90;;;;;;5004066;28;20121;-80
2021/01/16 08:05:04;;;;;;;18.57;10.43;;;-1.20;99.90;;;;;;4996718;28;20110;-80
2021/01/16 08:07:59;;;;;;;22.58;11.65;;;-1.20;99.90;;;;;;4991764;28;20122;-80
2021/01/16 08:10:25;;;;;;;20.95;11.40;;;-1.40;99.90;;;;;;5006041;28;20090;-80
2021/01/16 08:12:56;;;;;;;18.67;11.23;;;-1.20;99.90;;;;;;5006909;28;20086;-80
2021/01/16 08:15:30;;;;;;;17.90;11.13;;;-1.40;99.90;;;;;;5005807;28;20561;-80
2021/01/16 08:17:58;;;;;;;22.50;10.80;;;-1.40;99.90;;;;;;4995824;28;20070;-80
2021/01/16 08:20:30;;;;;;;22.73;10.67;;;-1.40;99.90;;;;;;5010797;28;20090;-80
2021/01/16 08:22:57;;;;;;;20.73;11.67;;;-1.40;99.90;;;;;;5010142;28;20555;-80
2021/01/16 08:25:27;;;;;;;23.10;11.80;;;-1.60;99.90;;;;;;5011182;28;20078;-80
2021/01/16 08:27:55;;;;;;;19.83;12.43;;;-1.50;99.90;;;;;;5001183;28;20600;-80
2021/01/16 08:30:23;;;;;;;22.13;11.60;;;-1.40;99.90;;;;;;5003482;28;20109;-80
2021/01/16 08:32:53;;;;;;;22.73;12.50;;;-1.40;99.90;;;;;;5007362;28;20101;-80
2021/01/16 08:35:30;;;;;;;21.75;11.68;;;-1.50;99.90;;;;;;5002018;28;20147;-80
2021/01/16 08:38:15;;;;;;;25.00;13.32;;;-1.60;99.90;;;;;;5011469;28;20235;-80
2021/01/16 08:40:42;;;;;;;22.30;12.40;;;-1.50;99.90;;;;;;5011538;28;20094;-80
2021/01/16 08:43:08;;;;;;;21.25;12.10;;;-1.50;99.90;;;;;;5000825;28;20075;-81
2021/01/16 08:45:34;;;;;;;21.70;11.75;;;-1.20;99.90;;;;;;5003031;28;20078;-80
2021/01/16 08:48:00;;;;;;;21.50;12.32;;;-1.30;99.90;;;;;;4995489;28;20086;-80
2021/01/16 08:50:34;;;;;;;23.30;11.82;;;-1.30;99.90;;;;;;5006243;28;20118;-80
2021/01/16 08:53:21;;;;;;;25.03;13.20;;;-1.30;99.90;;;;;;5003265;28;20640;-80
2021/01/16 08:55:47;;;;;;;25.07;12.83;;;-1.40;99.90;;;;;;5006953;28;20098;-81
2021/01/16 08:58:13;;;;;;;17.48;10.88;;;-1.20;99.90;;;;;;5002885;28;20120;-80
2021/01/16 09:00:40;;;;;;;23.03;12.80;;;-1.10;99.90;;;;;;5004570;28;20140;-80
2021/01/16 09:03:12;;;;;;;23.43;12.90;;;-1.00;99.90;;;;;;5003124;28;20598;-80
2021/01/16 09:05:39;;;;;;;19.23;12.00;;;-0.90;99.90;;;;;;5005460;28;20075;-80
2021/01/16 09:08:18;;;;;;;22.03;13.43;;;-0.90;99.90;;;;;;5000676;28;20081;-81
2021/01/16 09:10:44;;;;;;;20.08;11.57;;;-0.80;99.90;;;;;;4998670;28;20106;-80
2021/01/16 09:13:30;;;;;;;21.95;11.82;;;-0.80;99.90;;;;;;5000411;28;20367;-81
2021/01/16 09:15:56;;;;;;;20.27;11.87;;;-1.00;99.90;;;;;;4994139;28;20189;-80
2021/01/16 09:18:22;;;;;;;22.98;12.00;;;-1.10;99.90;;;;;;5001399;28;20071;-80
2021/01/16 09:20:54;;;;;;;23.73;12.73;;;-1.20;99.90;;;;;;4998086;28;20094;-80
2021/01/16 09:23:20;;;;;;;17.63;10.77;;;-1.00;99.90;;;;;;5009370;28;20077;-80
2021/01/16 09:25:53;;;;;;;21.95;12.05;;;-1.00;99.90;;;;;;5010905;28;20544;-80
2021/01/16 09:28:51;;;;;;;20.98;11.30;;;-1.20;99.90;;;;;;4996849;28;20148;-80
2021/01/16 09:31:43;;;;;;;18.50;10.70;;;-1.00;99.90;;;;;;5022871;28;20277;-80
2021/01/16 09:34:10;;;;;;;24.23;11.63;;;-1.10;99.90;;;;;;5010607;28;20103;-80
2021/01/16 09:36:43;;;;;;;19.75;12.27;;;-1.10;99.90;;;;;;5004763;28;20067;-80
2021/01/16 09:39:16;;;;;;;17.95;9.93;;;-1.00;99.90;;;;;;5006522;28;20517;-80
2021/01/16 09:41:43;;;;;;;18.90;10.20;;;-0.90;99.90;;;;;;5007060;28;20098;-80
2021/01/16 09:44:09;;;;;;;16.05;10.23;;;-1.10;99.90;;;;;;5007266;28;20498;-80
2021/01/16 09:46:37;;;;;;;17.85;10.65;;;-0.90;99.90;;;;;;5002610;28;20093;-80
2021/01/16 09:49:04;;;;;;;20.95;10.30;;;-1.00;99.90;;;;;;5006250;28;20166;-81
2021/01/16 09:51:33;;;;;;;19.45;10.45;;;-0.80;99.90;;;;;;5010095;28;20098;-80
2021/01/16 09:54:12;;;;;;;23.17;16.38;;;-0.70;99.90;;;;;;4997136;28;20078;-81
2021/01/16 09:56:49;;;;;;;19.80;9.70;;;-0.50;99.90;;;;;;5013046;28;20074;-80
2021/01/16 09:59:22;;;;;;;18.73;10.90;;;-0.50;99.90;;;;;;5004133;28;20649;-80
2021/01/16 10:02:10;;;;;;;17.27;10.07;;;-0.50;99.90;;;;;;4998965;28;20144;-81
2021/01/16 10:04:43;;;;;;;19.00;9.90;;;-0.40;99.90;;;;;;5027536;28;20081;-80
2021/01/16 10:07:14;;;;;;;16.45;10.02;;;-0.50;99.90;;;;;;5000163;28;20082;-80
2021/01/16 10:09:47;;;;;;;13.48;9.07;;;-0.60;99.90;;;;;;5012420;28;20121;-80
2021/01/16 10:12:35;;;;;;;15.32;9.63;;;-0.60;99.90;;;;;;5015201;28;20121;-81
2021/01/16 10:15:12;;;;;;;15.02;7.75;;;-0.60;99.90;;;;;;5003149;28;20173;-81
2021/01/16 10:17:43;;;;;;;14.73;8.75;;;-0.60;99.90;;;;;;5012815;28;20120;-81
2021/01/16 10:20:16;;;;;;;15.80;8.77;;;-0.60;99.90;;;;;;5012749;28;20110;-80
2021/01/16 10:22:52;;;;;;;15.07;8.45;;;-0.60;99.90;;;;;;5010839;28;20075;-80
2021/01/16 10:25:18;;;;;;;15.55;8.30;;;-0.70;99.90;;;;;;5007563;28;20085;-81
2021/01/16 10:27:46;;;;;;;15.10;8.70;;;-0.70;99.90;;;;;;5010589;28;20093;-80
2021/01/16 10:30:16;;;;;;;15.15;8.52;;;-0.70;99.90;;;;;;5018578;28;20503;-80
2021/01/16 10:32:42;;;;;;;13.23;7.78;;;-0.70;99.90;;;;;;5014548;28;20679;-81
2021/01/16 10:35:08;;;;;;;14.73;8.13;;;-0.60;99.90;;;;;;5017758;28;20099;-80
2021/01/16 10:37:41;;;;;;;15.18;8.05;;;-0.50;99.90;;;;;;5015590;28;20074;-80
2021/01/16 10:40:08;;;;;;;13.13;7.47;;;-0.50;99.90;;;;;;5012785;28;20107;-80
2021/01/16 10:42:48;;;;;;;11.15;6.82;;;-0.50;99.90;;;;;;5011777;28;20460;-80
2021/01/16 10:45:15;;;;;;;10.95;6.55;;;-0.70;99.90;;;;;;5008277;28;20124;-80
2021/01/16 10:47:43;;;;;;;15.10;7.63;;;-0.60;99.90;;;;;;5010398;28;20075;-81
2021/01/16 10:50:16;;;;;;;12.50;7.10;;;-0.50;99.90;;;;;;4999228;28;20087;-81
2021/01/16 10:52:42;;;;;;;15.45;8.55;;;-0.50;99.90;;;;;;5002955;28;20137;-80
2021/01/16 10:55:11;;;;;;;14.13;8.60;;;-0.50;99.90;;;;;;5005796;28;20102;-80
2021/01/16 10:57:44;;;;;;;13.73;7.75;;;-0.50;99.90;;;;;;5025986;28;20169;-80
2021/01/16 11:00:12;;;;;;;13.05;7.03;;;-0.50;99.90;;;;;;5009219;28;20610;-80
2021/01/16 11:02:41;;;;;;;11.55;7.60;;;-0.50;99.90;;;;;;5013991;28;20077;-79
2021/01/16 11:05:15;;;;;;;11.98;7.65;;;-0.50;99.90;;;;;;5012259;28;20085;-80
2021/01/16 11:07:42;;;;;;;;;;;-0.40;99.90;;;;;;5016255;28;20181;-80
2021/01/16 11:10:12;;;;;;;15.88;8.10;;;-0.40;99.90;;;;;;5017228;28;19981;-81
2021/01/16 11:12:38;;;;;;;31.27;20.10;;;-0.30;99.90;;;;;;5016760;28;20086;-80
2021/01/16 11:15:29;;;;;;;236.90;89.15;;;-0.30;99.90;;;;;;5007706;28;20086;-81
2021/01/16 11:17:56;;;;;;;164.68;62.17;;;-0.30;99.90;;;;;;5008233;28;20110;-81
2021/01/16 11:20:31;;;;;;;35.88;16.80;;;-0.20;99.90;;;;;;4998923;28;20118;-80
2021/01/16 11:23:18;;;;;;;22.17;10.88;;;0.00;99.90;;;;;;5005313;28;20066;-81
2021/01/16 11:25:49;;;;;;;13.70;7.75;;;0.00;99.90;;;;;;5009724;28;20169;-81
2021/01/16 11:28:25;;;;;;;14.32;7.70;;;-0.10;99.90;;;;;;5008265;28;20140;-81
2021/01/16 11:31:07;;;;;;;15.05;8.60;;;-0.30;99.90;;;;;;5014391;28;20148;-80
2021/01/16 11:33:34;;;;;;;13.93;6.75;;;-0.30;99.90;;;;;;4997392;28;20078;-80
2021/01/16 11:36:02;;;;;;;13.65;6.95;;;-0.40;99.90;;;;;;5005873;28;20109;-80
2021/01/16 11:38:49;;;;;;;12.27;7.15;;;-0.40;99.90;;;;;;4999102;28;20436;-80
2021/01/16 11:41:50;;;;;;;12.68;7.15;;;-0.40;99.90;;;;;;5011903;28;20177;-81
2021/01/16 11:44:16;;;;;;;15.43;7.70;;;-0.40;99.90;;;;;;5011634;28;20170;-80
2021/01/16 11:46:42;;;;;;;15.05;7.70;;;-0.40;99.90;;;;;;5013719;28;20102;-80
2021/01/16 11:49:08;;;;;;;12.48;7.03;;;-0.40;99.90;;;;;;5014493;28;20316;-80
2021/01/16 11:51:34;;;;;;;12.52;7.05;;;-0.30;99.90;;;;;;5003485;28;20094;-81
2021/01/16 11:54:00;;;;;;;12.65;6.97;;;-0.30;99.90;;;;;;5014216;28;20136;-80
2021/01/16 11:56:26;;;;;;;12.75;7.07;;;-0.30;99.90;;;;;;5012731;28;20074;-81
2021/01/16 11:58:53;;;;;;;12.38;6.97;;;-0.30;99.90;;;;;;5004875;28;20078;-80
2021/01/16 12:01:20;;;;;;;10.48;6.28;;;-0.40;99.90;;;;;;5002881;28;20083;-81
2021/01/16 12:03:45;;;;;;;11.23;6.68;;;-0.40;99.90;;;;;;5014934;28;20082;-81
2021/01/16 12:06:18;;;;;;;15.20;8.23;;;-0.60;99.90;;;;;;5014148;28;20066;-80
2021/01/16 12:08:48;;;;;;;12.30;7.75;;;-0.40;99.90;;;;;;5008855;28;20347;-81
2021/01/16 12:11:15;;;;;;;13.25;7.53;;;-0.40;99.90;;;;;;5010160;28;20096;-81
2021/01/16 12:13:42;;;;;;;13.82;7.25;;;-0.40;99.90;;;;;;5010799;28;20071;-80
2021/01/16 12:16:12;;;;;;;13.10;7.55;;;-0.50;99.90;;;;;;5008992;28;20094;-81
2021/01/16 12:18:40;;;;;;;12.88;7.10;;;-0.40;99.90;;;;;;5009461;28;20265;-81
2021/01/16 12:21:10;;;;;;;12.43;7.65;;;-0.60;99.90;;;;;;5022923;28;20093;-81
2021/01/16 12:23:46;;;;;;;11.75;6.95;;;-0.70;99.90;;;;;;5012609;28;20071;-81
2021/01/16 12:26:15;;;;;;;12.98;7.40;;;-0.60;99.90;;;;;;5007054;28;20078;-81
2021/01/16 12:28:49;;;;;;;14.40;7.93;;;-0.60;99.90;;;;;;5011540;28;20086;-81
2021/01/16 12:31:20;;;;;;;14.00;7.75;;;-0.60;99.90;;;;;;5005575;28;20105;-80
2021/01/16 12:33:46;;;;;;;11.05;6.32;;;-0.60;99.90;;;;;;5013382;28;20074;-81
2021/01/16 12:36:11;;;;;;;14.45;7.25;;;-0.50;99.90;;;;;;5014309;28;20086;-81
2021/01/16 12:38:37;;;;;;;11.52;6.88;;;-0.60;99.90;;;;;;5012637;28;20081;-81
2021/01/16 12:41:03;;;;;;;13.55;7.22;;;-0.60;99.90;;;;;;5010524;28;20523;-80
2021/01/16 12:43:29;;;;;;;13.15;6.95;;;-0.60;99.90;;;;;;5005340;28;20089;-81
2021/01/16 12:45:54;;;;;;;10.93;5.93;;;-0.60;99.90;;;;;;5002448;28;20604;-80